EZS63T EHAM-EGNV
Flight info
| Callsign | EZS63T |
|---|---|
| Flight time | 0h 50m |
| Altitude | 34000 |
| Route | BERGI L602 NALAX L46 ESHIN N110 ERKIT |
| Aircraft | A20N/M-SDE2E3FGHIRWXY/LB1 |
Departure
| Time | 2026-05-05 13:38 |
|---|---|
| Airport | Amsterdam Airport Schiphol (EHAM) |
Arrival
| Time | 2026-05-05 14:28 |
|---|---|
| Airport | Teesside International Airport (EGNV) |
| Time | Latitude | Longitude | Altitude | Speed | Heading |
|---|---|---|---|---|---|
| 2026-05-05 13:14 | 52.31007 | 4.75408 | -3 ft | 0 kts | 150° |
| 2026-05-05 13:23 | 52.31015 | 4.75400 | -3 ft | 3 kts | 150° |
| 2026-05-05 13:24 | 52.31025 | 4.75391 | -2 ft | 2 kts | 150° |
| 2026-05-05 13:24 | 52.31037 | 4.75380 | -2 ft | 3 kts | 150° |
| 2026-05-05 13:24 | 52.31055 | 4.75357 | -2 ft | 3 kts | 96° |
| 2026-05-05 13:24 | 52.31055 | 4.75349 | -2 ft | 0 kts | 70° |
| 2026-05-05 13:25 | 52.31056 | 4.75349 | -2 ft | 0 kts | 70° |
| 2026-05-05 13:29 | 52.31063 | 4.75380 | -2 ft | 9 kts | 66° |
| 2026-05-05 13:30 | 52.31112 | 4.75482 | -1 ft | 12 kts | 25° |
| 2026-05-05 13:30 | 52.31190 | 4.75463 | 4 ft | 11 kts | 350° |
| 2026-05-05 13:30 | 52.31265 | 4.75454 | 6 ft | 11 kts | 359° |
| 2026-05-05 13:30 | 52.31355 | 4.75449 | 7 ft | 16 kts | 357° |
| 2026-05-05 13:31 | 52.31469 | 4.75438 | 10 ft | 11 kts | 356° |
| 2026-05-05 13:31 | 52.31511 | 4.75374 | 10 ft | 11 kts | 280° |
| 2026-05-05 13:31 | 52.31506 | 4.75213 | 9 ft | 17 kts | 267° |
| 2026-05-05 13:31 | 52.31497 | 4.74931 | 14 ft | 30 kts | 267° |
| 2026-05-05 13:32 | 52.31486 | 4.74609 | 17 ft | 29 kts | 266° |
| 2026-05-05 13:32 | 52.31476 | 4.74333 | 13 ft | 14 kts | 260° |
| 2026-05-05 13:32 | 52.31472 | 4.74248 | 13 ft | 7 kts | 265° |
| 2026-05-05 13:32 | 52.31436 | 4.74162 | 16 ft | 13 kts | 216° |
| 2026-05-05 13:33 | 52.31320 | 4.74131 | 15 ft | 21 kts | 183° |
| 2026-05-05 13:33 | 52.31157 | 4.74116 | 12 ft | 26 kts | 183° |
| 2026-05-05 13:33 | 52.30966 | 4.74097 | 11 ft | 26 kts | 183° |
| 2026-05-05 13:33 | 52.30773 | 4.74078 | 11 ft | 29 kts | 182° |
| 2026-05-05 13:34 | 52.30573 | 4.74059 | 15 ft | 29 kts | 183° |
| 2026-05-05 13:34 | 52.30372 | 4.74041 | 16 ft | 22 kts | 184° |
| 2026-05-05 13:34 | 52.30277 | 4.73988 | 16 ft | 11 kts | 215° |
| 2026-05-05 13:34 | 52.30218 | 4.73911 | 14 ft | 11 kts | 221° |
| 2026-05-05 13:35 | 52.30200 | 4.73885 | 14 ft | 0 kts | 225° |
| 2026-05-05 13:35 | 52.30181 | 4.73813 | 16 ft | 13 kts | 261° |
| 2026-05-05 13:35 | 52.30221 | 4.73732 | 14 ft | 13 kts | 4° |
| 2026-05-05 13:36 | 52.30330 | 4.73746 | 11 ft | 18 kts | 3° |
| 2026-05-05 13:36 | 52.30454 | 4.73757 | 14 ft | 18 kts | 2° |
| 2026-05-05 13:36 | 52.30498 | 4.73761 | 14 ft | 0 kts | 3° |
| 2026-05-05 13:37 | 52.30514 | 4.73763 | 14 ft | 17 kts | 3° |
| 2026-05-05 13:37 | 52.30889 | 4.73803 | 17 ft | 89 kts | 3° |
| 2026-05-05 13:37 | 52.31703 | 4.73873 | 22 ft | 141 kts | 5° |
| 2026-05-05 13:38 | 52.32661 | 4.73959 | 555 ft | 142 kts | 7° |
| 2026-05-05 13:38 | 52.33674 | 4.74068 | 1380 ft | 141 kts | 6° |
| 2026-05-05 13:38 | 52.34659 | 4.74096 | 2088 ft | 148 kts | 354° |
| 2026-05-05 13:38 | 52.35717 | 4.73531 | 2501 ft | 171 kts | 344° |
| 2026-05-05 13:39 | 52.36900 | 4.72795 | 2928 ft | 196 kts | 343° |
| 2026-05-05 13:39 | 52.38261 | 4.71967 | 3470 ft | 219 kts | 343° |
| 2026-05-05 13:39 | 52.39756 | 4.71060 | 4126 ft | 241 kts | 342° |
| 2026-05-05 13:39 | 52.41377 | 4.69981 | 4955 ft | 261 kts | 333° |
| 2026-05-05 13:40 | 52.42995 | 4.68450 | 5143 ft | 268 kts | 330° |
| 2026-05-05 13:40 | 52.44556 | 4.66885 | 5251 ft | 265 kts | 329° |
| 2026-05-05 13:40 | 52.46128 | 4.65279 | 5364 ft | 267 kts | 329° |
| 2026-05-05 13:40 | 52.47717 | 4.63671 | 5478 ft | 268 kts | 329° |
| 2026-05-05 13:41 | 52.49304 | 4.62063 | 5592 ft | 269 kts | 329° |
| 2026-05-05 13:41 | 52.50896 | 4.60455 | 5704 ft | 269 kts | 329° |
| 2026-05-05 13:41 | 52.52502 | 4.58850 | 5817 ft | 270 kts | 329° |
| 2026-05-05 13:41 | 52.54113 | 4.57243 | 5932 ft | 271 kts | 329° |
| 2026-05-05 13:42 | 52.55735 | 4.55640 | 5937 ft | 271 kts | 329° |
| 2026-05-05 13:42 | 52.57349 | 4.54038 | 5941 ft | 271 kts | 329° |
| 2026-05-05 13:42 | 52.58980 | 4.52422 | 6198 ft | 275 kts | 329° |
| 2026-05-05 13:42 | 52.60613 | 4.50825 | 7047 ft | 276 kts | 329° |
| 2026-05-05 13:43 | 52.62263 | 4.49234 | 8282 ft | 276 kts | 329° |
| 2026-05-05 13:43 | 52.63944 | 4.47629 | 9276 ft | 282 kts | 329° |
| 2026-05-05 13:43 | 52.65660 | 4.46007 | 9929 ft | 287 kts | 329° |
| 2026-05-05 13:43 | 52.67430 | 4.44333 | 10379 ft | 305 kts | 329° |
| 2026-05-05 13:44 | 52.69344 | 4.42539 | 10833 ft | 326 kts | 329° |
| 2026-05-05 13:44 | 52.71360 | 4.40674 | 11291 ft | 334 kts | 329° |
| 2026-05-05 13:44 | 52.73379 | 4.38777 | 11736 ft | 333 kts | 323° |
| 2026-05-05 13:44 | 52.75013 | 4.36076 | 12193 ft | 337 kts | 303° |
| 2026-05-05 13:45 | 52.76208 | 4.32730 | 12667 ft | 339 kts | 297° |
| 2026-05-05 13:45 | 52.77316 | 4.29278 | 13143 ft | 341 kts | 296° |
| 2026-05-05 13:45 | 52.78414 | 4.25849 | 13618 ft | 337 kts | 296° |
| 2026-05-05 13:45 | 52.79534 | 4.22410 | 14072 ft | 341 kts | 297° |
| 2026-05-05 13:46 | 52.80664 | 4.19003 | 14503 ft | 343 kts | 297° |
| 2026-05-05 13:46 | 52.81826 | 4.15537 | 14941 ft | 346 kts | 297° |
| 2026-05-05 13:46 | 52.83002 | 4.12043 | 15385 ft | 349 kts | 297° |
| 2026-05-05 13:46 | 52.84190 | 4.08513 | 15836 ft | 353 kts | 297° |
| 2026-05-05 13:47 | 52.85392 | 4.04940 | 16296 ft | 356 kts | 297° |
| 2026-05-05 13:47 | 52.86600 | 4.01343 | 16767 ft | 359 kts | 297° |
| 2026-05-05 13:47 | 52.87818 | 3.97712 | 17235 ft | 362 kts | 297° |
| 2026-05-05 13:47 | 52.89034 | 3.94079 | 17719 ft | 366 kts | 297° |
| 2026-05-05 13:48 | 52.90278 | 3.90352 | 18207 ft | 370 kts | 297° |
| 2026-05-05 13:48 | 52.91528 | 3.86615 | 18638 ft | 372 kts | 297° |
| 2026-05-05 13:48 | 52.92781 | 3.82859 | 19072 ft | 374 kts | 296° |
| 2026-05-05 13:48 | 52.94041 | 3.79061 | 19509 ft | 378 kts | 297° |
| 2026-05-05 13:49 | 52.95387 | 3.75298 | 19959 ft | 378 kts | 302° |
| 2026-05-05 13:49 | 52.96791 | 3.71631 | 20398 ft | 377 kts | 297° |
| 2026-05-05 13:49 | 52.97994 | 3.67758 | 20881 ft | 379 kts | 294° |
| 2026-05-05 13:49 | 52.99172 | 3.63826 | 21338 ft | 381 kts | 294° |
| 2026-05-05 13:50 | 53.00358 | 3.59876 | 21808 ft | 384 kts | 294° |
| 2026-05-05 13:50 | 53.01554 | 3.55900 | 22291 ft | 386 kts | 294° |
| 2026-05-05 13:50 | 53.02786 | 3.51917 | 22784 ft | 388 kts | 296° |
| 2026-05-05 13:50 | 53.04103 | 3.47974 | 23281 ft | 392 kts | 297° |
| 2026-05-05 13:51 | 53.05454 | 3.44018 | 23736 ft | 394 kts | 297° |
| 2026-05-05 13:51 | 53.06810 | 3.40053 | 24177 ft | 396 kts | 296° |
| 2026-05-05 13:51 | 53.08157 | 3.36096 | 24593 ft | 398 kts | 296° |
| 2026-05-05 13:51 | 53.09422 | 3.31991 | 25029 ft | 398 kts | 290° |
| 2026-05-05 13:52 | 53.10385 | 3.27667 | 25475 ft | 398 kts | 284° |
| 2026-05-05 13:52 | 53.11048 | 3.23201 | 25925 ft | 398 kts | 279° |
| 2026-05-05 13:52 | 53.11640 | 3.18674 | 26387 ft | 401 kts | 279° |
| 2026-05-05 13:52 | 53.12247 | 3.14121 | 26840 ft | 403 kts | 279° |
| 2026-05-05 13:53 | 53.12850 | 3.09604 | 27320 ft | 405 kts | 279° |
| 2026-05-05 13:53 | 53.13460 | 3.05003 | 27816 ft | 407 kts | 279° |
| 2026-05-05 13:53 | 53.14070 | 3.00370 | 28306 ft | 410 kts | 279° |
| 2026-05-05 13:53 | 53.14682 | 2.95710 | 28805 ft | 412 kts | 279° |
| 2026-05-05 13:54 | 53.15293 | 2.91033 | 29313 ft | 414 kts | 279° |
| 2026-05-05 13:54 | 53.15904 | 2.86344 | 29830 ft | 415 kts | 278° |
| 2026-05-05 13:54 | 53.16515 | 2.81635 | 30305 ft | 416 kts | 278° |
| 2026-05-05 13:54 | 53.17126 | 2.76905 | 30759 ft | 417 kts | 278° |
| 2026-05-05 13:55 | 53.17737 | 2.72160 | 31213 ft | 418 kts | 279° |
| 2026-05-05 13:55 | 53.18341 | 2.67458 | 31666 ft | 419 kts | 279° |
| 2026-05-05 13:55 | 53.18949 | 2.62707 | 32143 ft | 419 kts | 279° |
| 2026-05-05 13:55 | 53.19555 | 2.57952 | 32617 ft | 419 kts | 279° |
| 2026-05-05 13:56 | 53.20160 | 2.53192 | 33113 ft | 419 kts | 279° |
| 2026-05-05 13:56 | 53.20761 | 2.48434 | 33604 ft | 418 kts | 279° |
| 2026-05-05 13:56 | 53.21363 | 2.43661 | 33814 ft | 424 kts | 279° |
| 2026-05-05 13:56 | 53.21975 | 2.38797 | 33918 ft | 431 kts | 279° |
| 2026-05-05 13:57 | 53.23205 | 2.28994 | 34001 ft | 431 kts | 279° |
| 2026-05-05 13:57 | 53.24428 | 2.19140 | 33993 ft | 434 kts | 280° |
| 2026-05-05 13:58 | 53.25640 | 2.09350 | 33993 ft | 433 kts | 280° |
| 2026-05-05 13:58 | 53.26854 | 1.99444 | 33994 ft | 439 kts | 280° |
| 2026-05-05 13:59 | 53.28682 | 1.84418 | 33993 ft | 438 kts | 280° |
| 2026-05-05 14:00 | 53.30280 | 1.71134 | 33986 ft | 436 kts | 280° |
| 2026-05-05 14:00 | 53.31655 | 1.59603 | 33975 ft | 436 kts | 280° |
| 2026-05-05 14:01 | 53.32838 | 1.49626 | 33995 ft | 441 kts | 281° |
| 2026-05-05 14:01 | 53.34278 | 1.39599 | 33993 ft | 442 kts | 283° |
| 2026-05-05 14:02 | 53.35775 | 1.29626 | 33997 ft | 442 kts | 283° |
| 2026-05-05 14:02 | 53.37222 | 1.19677 | 33993 ft | 441 kts | 282° |
| 2026-05-05 14:03 | 53.38655 | 1.09654 | 33993 ft | 442 kts | 282° |
| 2026-05-05 14:03 | 53.40080 | 0.99616 | 33978 ft | 443 kts | 282° |
| 2026-05-05 14:04 | 53.41501 | 0.89561 | 33985 ft | 443 kts | 282° |
| 2026-05-05 14:04 | 53.42903 | 0.79557 | 33988 ft | 444 kts | 282° |
| 2026-05-05 14:05 | 53.44307 | 0.69473 | 33991 ft | 444 kts | 282° |
| 2026-05-05 14:05 | 53.45708 | 0.59352 | 34002 ft | 445 kts | 282° |
| 2026-05-05 14:06 | 53.47101 | 0.49221 | 33991 ft | 446 kts | 282° |
| 2026-05-05 14:06 | 53.48478 | 0.39131 | 33869 ft | 447 kts | 282° |
| 2026-05-05 14:07 | 53.49170 | 0.34038 | 33440 ft | 447 kts | 282° |
| 2026-05-05 14:07 | 53.49860 | 0.28941 | 32818 ft | 446 kts | 282° |
| 2026-05-05 14:07 | 53.50545 | 0.23873 | 32203 ft | 442 kts | 281° |
| 2026-05-05 14:07 | 53.51223 | 0.18837 | 31594 ft | 441 kts | 281° |
| 2026-05-05 14:08 | 53.51897 | 0.13787 | 30977 ft | 444 kts | 281° |
| 2026-05-05 14:08 | 53.52571 | 0.08716 | 30379 ft | 445 kts | 281° |
| 2026-05-05 14:08 | 53.53245 | 0.03647 | 29743 ft | 440 kts | 281° |
| 2026-05-05 14:08 | 53.53908 | -0.01340 | 29068 ft | 434 kts | 281° |
| 2026-05-05 14:09 | 53.54557 | -0.06262 | 28377 ft | 428 kts | 281° |
| 2026-05-05 14:09 | 53.55191 | -0.11069 | 27711 ft | 423 kts | 281° |
| 2026-05-05 14:09 | 53.55822 | -0.15870 | 27051 ft | 416 kts | 281° |
| 2026-05-05 14:09 | 53.56441 | -0.20598 | 26403 ft | 411 kts | 281° |
| 2026-05-05 14:10 | 53.57108 | -0.25258 | 25762 ft | 406 kts | 287° |
| 2026-05-05 14:10 | 53.58330 | -0.29520 | 25155 ft | 406 kts | 301° |
| 2026-05-05 14:10 | 53.60185 | -0.33103 | 24551 ft | 407 kts | 316° |
| 2026-05-05 14:10 | 53.61687 | -0.34994 | 24160 ft | 407 kts | 322° |
| 2026-05-05 14:11 | 53.64027 | -0.37665 | 23547 ft | 404 kts | 322° |
| 2026-05-05 14:11 | 53.67091 | -0.41158 | 22701 ft | 399 kts | 322° |
| 2026-05-05 14:11 | 53.69369 | -0.43770 | 22092 ft | 394 kts | 322° |
| 2026-05-05 14:11 | 53.71621 | -0.46364 | 21476 ft | 389 kts | 322° |
| 2026-05-05 14:12 | 53.73847 | -0.48936 | 20902 ft | 385 kts | 322° |
| 2026-05-05 14:12 | 53.75256 | -0.50567 | 20549 ft | 383 kts | 322° |
| 2026-05-05 14:12 | 53.77452 | -0.53115 | 19993 ft | 380 kts | 322° |
| 2026-05-05 14:12 | 53.79596 | -0.55604 | 19461 ft | 376 kts | 322° |
| 2026-05-05 14:13 | 53.81741 | -0.58097 | 18929 ft | 372 kts | 322° |
| 2026-05-05 14:13 | 53.83873 | -0.60578 | 18405 ft | 370 kts | 322° |
| 2026-05-05 14:13 | 53.85983 | -0.63045 | 17829 ft | 367 kts | 322° |
| 2026-05-05 14:13 | 53.88066 | -0.65495 | 17294 ft | 362 kts | 322° |
| 2026-05-05 14:14 | 53.90133 | -0.67940 | 16725 ft | 361 kts | 322° |
| 2026-05-05 14:14 | 53.92180 | -0.70383 | 16137 ft | 359 kts | 322° |
| 2026-05-05 14:14 | 53.94202 | -0.72811 | 15620 ft | 354 kts | 322° |
| 2026-05-05 14:14 | 53.96173 | -0.75192 | 15135 ft | 351 kts | 322° |
| 2026-05-05 14:15 | 53.98814 | -0.78431 | 14474 ft | 347 kts | 321° |
| 2026-05-05 14:15 | 54.00065 | -0.80119 | 14161 ft | 344 kts | 319° |
| 2026-05-05 14:15 | 54.01853 | -0.82791 | 13665 ft | 343 kts | 314° |
| 2026-05-05 14:15 | 54.03492 | -0.85723 | 13137 ft | 340 kts | 311° |
| 2026-05-05 14:16 | 54.05094 | -0.88650 | 12615 ft | 336 kts | 311° |
| 2026-05-05 14:16 | 54.06680 | -0.91548 | 12099 ft | 331 kts | 311° |
| 2026-05-05 14:16 | 54.08236 | -0.94409 | 11590 ft | 327 kts | 311° |
| 2026-05-05 14:16 | 54.09765 | -0.97251 | 11091 ft | 323 kts | 311° |
| 2026-05-05 14:17 | 54.11281 | -1.00047 | 10596 ft | 319 kts | 311° |
| 2026-05-05 14:17 | 54.12771 | -1.02815 | 10108 ft | 315 kts | 311° |
| 2026-05-05 14:17 | 54.14223 | -1.05540 | 9609 ft | 305 kts | 311° |
| 2026-05-05 14:17 | 54.15632 | -1.08177 | 9075 ft | 297 kts | 311° |
| 2026-05-05 14:18 | 54.16991 | -1.10746 | 8551 ft | 290 kts | 311° |
| 2026-05-05 14:18 | 54.18325 | -1.13279 | 8030 ft | 283 kts | 311° |
| 2026-05-05 14:18 | 54.19628 | -1.15763 | 7528 ft | 278 kts | 311° |
| 2026-05-05 14:18 | 54.20816 | -1.18269 | 7025 ft | 273 kts | 301° |
| 2026-05-05 14:19 | 54.21626 | -1.21175 | 6548 ft | 269 kts | 293° |
| 2026-05-05 14:19 | 54.22358 | -1.24105 | 6037 ft | 267 kts | 293° |
| 2026-05-05 14:19 | 54.23079 | -1.27030 | 5508 ft | 265 kts | 293° |
| 2026-05-05 14:19 | 54.23775 | -1.29931 | 4994 ft | 263 kts | 293° |
| 2026-05-05 14:20 | 54.24456 | -1.32810 | 4472 ft | 260 kts | 293° |
| 2026-05-05 14:20 | 54.25119 | -1.35672 | 3990 ft | 257 kts | 293° |
| 2026-05-05 14:20 | 54.25760 | -1.38519 | 3531 ft | 256 kts | 294° |
| 2026-05-05 14:20 | 54.26346 | -1.41356 | 3255 ft | 247 kts | 293° |
| 2026-05-05 14:21 | 54.26960 | -1.43976 | 3128 ft | 226 kts | 307° |
| 2026-05-05 14:21 | 54.28003 | -1.45725 | 3030 ft | 212 kts | 332° |
| 2026-05-05 14:21 | 54.29335 | -1.46827 | 3017 ft | 204 kts | 336° |
| 2026-05-05 14:21 | 54.30551 | -1.47812 | 2998 ft | 189 kts | 336° |
| 2026-05-05 14:22 | 54.31751 | -1.48782 | 3001 ft | 195 kts | 337° |
| 2026-05-05 14:22 | 54.32952 | -1.49760 | 2998 ft | 183 kts | 337° |
| 2026-05-05 14:22 | 54.34097 | -1.50695 | 3001 ft | 186 kts | 337° |
| 2026-05-05 14:22 | 54.35276 | -1.51648 | 2971 ft | 186 kts | 337° |
| 2026-05-05 14:23 | 54.36394 | -1.52557 | 2892 ft | 174 kts | 336° |
| 2026-05-05 14:23 | 54.37455 | -1.53425 | 2600 ft | 163 kts | 338° |
| 2026-05-05 14:23 | 54.38467 | -1.54251 | 2183 ft | 159 kts | 339° |
| 2026-05-05 14:23 | 54.39460 | -1.55057 | 1918 ft | 158 kts | 339° |
| 2026-05-05 14:24 | 54.40394 | -1.55821 | 1804 ft | 139 kts | 339° |
| 2026-05-05 14:24 | 54.41206 | -1.56492 | 1696 ft | 124 kts | 340° |
| 2026-05-05 14:24 | 54.41938 | -1.57094 | 1698 ft | 115 kts | 340° |
| 2026-05-05 14:24 | 54.42681 | -1.57424 | 1699 ft | 108 kts | 5° |
| 2026-05-05 14:25 | 54.43410 | -1.56986 | 1700 ft | 114 kts | 34° |
| 2026-05-05 14:25 | 54.43945 | -1.56064 | 1696 ft | 110 kts | 45° |
| 2026-05-05 14:25 | 54.44461 | -1.55042 | 1700 ft | 112 kts | 43° |
| 2026-05-05 14:25 | 54.44985 | -1.54062 | 1697 ft | 110 kts | 42° |
| 2026-05-05 14:26 | 54.45506 | -1.53085 | 1552 ft | 111 kts | 44° |
| 2026-05-05 14:26 | 54.46038 | -1.52090 | 1404 ft | 115 kts | 44° |
| 2026-05-05 14:26 | 54.46569 | -1.51094 | 1230 ft | 108 kts | 43° |
| 2026-05-05 14:26 | 54.47081 | -1.50137 | 1086 ft | 110 kts | 44° |
| 2026-05-05 14:27 | 54.47605 | -1.49162 | 898 ft | 114 kts | 44° |
| 2026-05-05 14:27 | 54.48146 | -1.48185 | 783 ft | 111 kts | 43° |
| 2026-05-05 14:27 | 54.48678 | -1.47227 | 638 ft | 112 kts | 47° |
| 2026-05-05 14:27 | 54.49183 | -1.46185 | 465 ft | 111 kts | 47° |
| 2026-05-05 14:28 | 54.49682 | -1.45241 | 321 ft | 107 kts | 46° |
| 2026-05-05 14:28 | 54.50192 | -1.44289 | 183 ft | 107 kts | 45° |
| 2026-05-05 14:28 | 54.50695 | -1.43364 | 129 ft | 95 kts | 47° |
| 2026-05-05 14:28 | 54.50949 | -1.42891 | 125 ft | 34 kts | 48° |
| 2026-05-05 14:29 | 54.51034 | -1.42760 | 124 ft | 8 kts | 357° |
| 2026-05-05 14:29 | 54.51059 | -1.42845 | 127 ft | 10 kts | 268° |
| 2026-05-05 14:29 | 54.51061 | -1.42993 | 127 ft | 15 kts | 273° |
| 2026-05-05 14:29 | 54.51066 | -1.43135 | 124 ft | 6 kts | 276° |
| 2026-05-05 14:30 | 54.51069 | -1.43154 | 125 ft | 0 kts | 286° |
| 2026-05-05 14:30 | 54.51070 | -1.43161 | 126 ft | 3 kts | 290° |
| 2026-05-05 14:30 | 54.51101 | -1.43199 | 126 ft | 8 kts | 332° |
| 2026-05-05 14:30 | 54.51138 | -1.43236 | 126 ft | 1 kts | 329° |
| 2026-05-05 14:31 | 54.51141 | -1.43240 | 126 ft | 0 kts | 329° |